Time;durP1;ratioP1;P1;durP2;ratioP2;P2;SDS_P1;SDS_P2;PMS_P1;PMS_P2;Temp;Humidity;BMP_temperature;BMP_pressure;BME280_temperature;BME280_humidity;BME280_pressure;Samples;Min_cycle;Max_cycle;Signal;HPM_P1;HPM_P2
2021/11/16 00:02:01;;;;;;;1.20;1.10;;;7.60;99.90;;;;;;5093282;28;20385;-71
2021/11/16 00:04:27;;;;;;;0.70;0.50;;;7.60;99.90;;;;;;5091545;28;20378;-71
2021/11/16 00:06:53;;;;;;;0.70;0.70;;;7.80;99.90;;;;;;5092283;28;20431;-71
2021/11/16 00:09:20;;;;;;;0.40;0.40;;;7.80;99.90;;;;;;5092859;28;20381;-71
2021/11/16 00:11:46;;;;;;;0.40;0.20;;;7.80;99.90;;;;;;5092367;28;20799;-71
2021/11/16 00:14:12;;;;;;;0.60;0.60;;;7.70;99.90;;;;;;5092755;28;20378;-71
2021/11/16 00:16:39;;;;;;;0.60;0.60;;;7.70;99.90;;;;;;5092306;28;20389;-72
2021/11/16 00:19:11;;;;;;;0.90;0.80;;;7.70;99.90;;;;;;5092631;28;20414;-71
2021/11/16 00:21:36;;;;;;;2.60;1.10;;;7.80;99.90;;;;;;5092210;28;20383;-72
2021/11/16 00:24:09;;;;;;;0.40;0.40;;;7.60;99.90;;;;;;5092639;28;20519;-71
2021/11/16 00:26:35;;;;;;;0.40;0.30;;;7.60;99.90;;;;;;5092646;28;20378;-70
2021/11/16 00:29:01;;;;;;;0.40;0.30;;;7.70;99.90;;;;;;5091691;28;20649;-71
2021/11/16 00:31:27;;;;;;;0.60;0.60;;;7.80;99.90;;;;;;5092417;28;20806;-71
2021/11/16 00:33:54;;;;;;;0.50;0.50;;;7.90;99.90;;;;;;5091587;28;20378;-71
2021/11/16 00:36:19;;;;;;;0.40;0.40;;;7.80;99.90;;;;;;5092021;28;20850;-71
2021/11/16 00:38:45;;;;;;;0.40;0.30;;;7.70;99.90;;;;;;5091360;28;20512;-71
2021/11/16 00:41:11;;;;;;;0.40;0.25;;;7.80;99.90;;;;;;5092187;28;20378;-71
2021/11/16 00:43:37;;;;;;;0.60;0.50;;;7.80;99.90;;;;;;5091901;28;20703;-72
2021/11/16 00:46:03;;;;;;;0.50;0.50;;;7.80;99.90;;;;;;5092470;28;20433;-71
2021/11/16 00:48:29;;;;;;;0.40;0.20;;;7.70;99.90;;;;;;5091650;28;20483;-71
2021/11/16 00:50:57;;;;;;;0.40;0.30;;;7.70;99.90;;;;;;5091000;28;20412;-71
2021/11/16 00:53:28;;;;;;;0.50;0.50;;;7.80;99.90;;;;;;5091934;28;20371;-71
2021/11/16 00:55:54;;;;;;;0.40;0.30;;;7.70;99.90;;;;;;5091350;28;20435;-71
2021/11/16 00:58:20;;;;;;;0.40;0.30;;;7.70;99.90;;;;;;5091466;28;20820;-71
2021/11/16 01:00:46;;;;;;;0.80;0.80;;;7.80;99.90;;;;;;5091077;28;20385;-71
2021/11/16 01:03:13;;;;;;;0.50;0.50;;;7.80;99.90;;;;;;5091723;28;20380;-71
2021/11/16 01:05:40;;;;;;;0.95;0.63;;;7.80;99.90;;;;;;5090700;28;20378;-71
2021/11/16 01:08:07;;;;;;;0.40;0.30;;;7.90;99.90;;;;;;5091604;28;20386;-71
2021/11/16 01:10:33;;;;;;;0.60;0.60;;;7.80;99.90;;;;;;5091142;28;20572;-71
2021/11/16 01:12:59;;;;;;;0.40;0.20;;;7.90;99.90;;;;;;5091060;28;20448;-71
2021/11/16 01:15:25;;;;;;;0.40;0.20;;;7.80;99.90;;;;;;5091135;28;20390;-71
2021/11/16 01:17:51;;;;;;;0.40;0.20;;;7.80;99.90;;;;;;5090728;28;20488;-71
2021/11/16 01:20:19;;;;;;;0.40;0.20;;;7.70;99.90;;;;;;5091233;28;20500;-71
2021/11/16 01:22:48;;;;;;;0.40;0.30;;;7.70;99.90;;;;;;5090949;28;20382;-71
2021/11/16 01:25:15;;;;;;;0.40;0.30;;;7.50;99.90;;;;;;5091332;28;20378;-71
2021/11/16 01:27:41;;;;;;;0.40;0.20;;;7.60;99.90;;;;;;5090791;28;20374;-71
2021/11/16 01:30:11;;;;;;;1.40;0.90;;;7.60;99.90;;;;;;5091174;28;20381;-71
2021/11/16 01:32:41;;;;;;;1.90;1.10;;;7.70;99.90;;;;;;5091272;28;20431;-71
2021/11/16 01:35:07;;;;;;;1.50;0.70;;;7.80;99.90;;;;;;5091376;28;20389;-70
2021/11/16 01:37:34;;;;;;;0.70;0.70;;;7.60;99.90;;;;;;5091021;28;20382;-71
2021/11/16 01:40:00;;;;;;;0.40;0.40;;;7.80;99.90;;;;;;5090448;28;20728;-71
2021/11/16 01:42:27;;;;;;;0.40;0.20;;;7.90;99.90;;;;;;5091116;28;20378;-71
2021/11/16 01:44:52;;;;;;;0.40;0.30;;;7.80;99.90;;;;;;5090086;28;20692;-71
2021/11/16 01:47:19;;;;;;;0.80;0.70;;;7.80;99.90;;;;;;5091168;28;20393;-70
2021/11/16 01:49:45;;;;;;;0.40;0.40;;;7.60;99.90;;;;;;5090518;28;20378;-71
2021/11/16 01:52:11;;;;;;;0.60;0.60;;;7.60;99.90;;;;;;5090717;28;20523;-70
2021/11/16 01:54:37;;;;;;;0.40;0.40;;;7.70;99.90;;;;;;5090629;28;20410;-70
2021/11/16 01:57:04;;;;;;;0.50;0.50;;;7.70;99.90;;;;;;5090411;28;20457;-71
2021/11/16 01:59:30;;;;;;;0.50;0.50;;;7.70;99.90;;;;;;5090646;28;20393;-71
2021/11/16 02:01:57;;;;;;;0.40;0.20;;;7.70;99.90;;;;;;5090323;28;20478;-71
2021/11/16 02:04:23;;;;;;;0.40;0.20;;;7.70;99.90;;;;;;5090680;28;20735;-70
2021/11/16 02:06:49;;;;;;;0.50;0.50;;;7.70;99.90;;;;;;5090081;28;20404;-71
2021/11/16 02:09:16;;;;;;;3.20;1.30;;;7.70;99.90;;;;;;5090676;28;20508;-71
2021/11/16 02:11:43;;;;;;;0.40;0.30;;;7.60;99.90;;;;;;5090487;28;20739;-71
2021/11/16 02:14:12;;;;;;;0.40;0.20;;;7.70;99.90;;;;;;5090685;28;20370;-71
2021/11/16 02:16:39;;;;;;;3.42;1.38;;;7.70;99.90;;;;;;5090834;28;20386;-71
2021/11/16 02:19:07;;;;;;;0.40;0.40;;;7.70;99.90;;;;;;5089903;28;20406;-71
2021/11/16 02:21:33;;;;;;;0.40;0.40;;;7.60;99.90;;;;;;5090748;28;20374;-71
2021/11/16 02:23:59;;;;;;;0.50;0.50;;;7.60;99.90;;;;;;5089954;28;20372;-70
2021/11/16 02:26:25;;;;;;;1.10;0.90;;;7.70;99.90;;;;;;5090459;28;20382;-71
2021/11/16 02:28:52;;;;;;;0.40;0.40;;;7.70;99.90;;;;;;5092734;28;20390;-71
2021/11/16 02:31:20;;;;;;;0.40;0.40;;;7.60;99.90;;;;;;5094578;28;20385;-71
2021/11/16 02:33:46;;;;;;;0.40;0.30;;;7.70;99.90;;;;;;5094230;28;20385;-70
2021/11/16 02:36:13;;;;;;;0.40;0.30;;;7.60;99.90;;;;;;5094694;28;20843;-69
2021/11/16 02:38:39;;;;;;;0.40;0.30;;;7.60;99.90;;;;;;5094576;28;20410;-69
2021/11/16 02:41:05;;;;;;;0.40;0.30;;;7.50;99.90;;;;;;5094006;28;20866;-70
2021/11/16 02:43:34;;;;;;;0.40;0.20;;;7.60;99.90;;;;;;5094471;28;20379;-69
2021/11/16 02:46:02;;;;;;;0.90;0.90;;;7.70;99.90;;;;;;5093388;28;20409;-70
2021/11/16 02:48:28;;;;;;;0.40;0.20;;;7.60;99.90;;;;;;5094365;28;20385;-71
2021/11/16 02:50:59;;;;;;;0.40;0.20;;;7.60;99.90;;;;;;5093634;28;20831;-70
2021/11/16 02:53:25;;;;;;;0.40;0.20;;;7.60;99.90;;;;;;5094332;28;20388;-70
2021/11/16 02:55:52;;;;;;;0.40;0.20;;;7.60;99.90;;;;;;5093678;28;20419;-70
2021/11/16 02:58:19;;;;;;;0.40;0.30;;;7.50;99.90;;;;;;5094260;28;20407;-70
2021/11/16 03:00:53;;;;;;;0.40;0.20;;;7.60;99.90;;;;;;5093656;28;20493;-71
2021/11/16 03:03:20;;;;;;;0.80;0.80;;;7.60;99.90;;;;;;5094238;28;20369;-69
2021/11/16 03:05:46;;;;;;;1.10;1.00;;;7.70;99.90;;;;;;5093243;28;21026;-70
2021/11/16 03:08:21;;;;;;;0.40;0.20;;;7.50;99.90;;;;;;5094121;28;20389;-70
2021/11/16 03:10:49;;;;;;;0.40;0.20;;;7.50;99.90;;;;;;5093489;28;20424;-71
2021/11/16 03:13:15;;;;;;;0.90;0.60;;;7.50;99.90;;;;;;5094008;28;20465;-70
2021/11/16 03:15:41;;;;;;;0.40;0.20;;;7.50;99.90;;;;;;5093952;28;20487;-70
2021/11/16 03:18:07;;;;;;;0.40;0.20;;;7.60;99.90;;;;;;5093367;28;20449;-70
2021/11/16 03:20:34;;;;;;;0.40;0.20;;;7.40;99.90;;;;;;5093832;28;20365;-70
2021/11/16 03:23:20;;;;;;;0.60;0.60;;;7.40;99.90;;;;;;5093317;28;20374;-70
2021/11/16 03:25:51;;;;;;;0.40;0.30;;;7.40;99.90;;;;;;5093841;28;20816;-70
2021/11/16 03:28:20;;;;;;;0.40;0.30;;;7.40;99.90;;;;;;5093455;28;20873;-70
2021/11/16 03:30:51;;;;;;;0.40;0.20;;;7.40;99.90;;;;;;5093513;28;20417;-70
2021/11/16 03:33:19;;;;;;;0.40;0.20;;;7.30;99.90;;;;;;5093940;28;20370;-71
2021/11/16 03:35:45;;;;;;;0.40;0.20;;;7.30;99.90;;;;;;5093400;28;20375;-70
2021/11/16 03:38:11;;;;;;;1.20;1.10;;;7.40;99.90;;;;;;5092815;28;20872;-70
2021/11/16 03:40:39;;;;;;;0.40;0.30;;;7.50;99.90;;;;;;5092023;28;20394;-70
2021/11/16 03:43:12;;;;;;;0.50;0.50;;;7.50;99.90;;;;;;5092716;28;20461;-71
2021/11/16 03:45:43;;;;;;;0.40;0.20;;;7.50;99.90;;;;;;5093028;28;20781;-70
2021/11/16 03:48:10;;;;;;;0.40;0.30;;;7.60;99.90;;;;;;5092593;28;20397;-70
2021/11/16 03:50:37;;;;;;;0.50;0.47;;;7.60;99.90;;;;;;5092792;28;20485;-70
2021/11/16 03:53:03;;;;;;;0.40;0.30;;;7.70;99.90;;;;;;5092759;28;20374;-71
2021/11/16 03:55:34;;;;;;;0.50;0.50;;;7.60;99.90;;;;;;5093032;28;20745;-71
2021/11/16 03:58:01;;;;;;;0.40;0.30;;;7.50;99.90;;;;;;5092210;28;20501;-71
2021/11/16 04:00:35;;;;;;;0.40;0.20;;;7.70;99.90;;;;;;5092862;28;20494;-71
2021/11/16 04:03:02;;;;;;;0.40;0.20;;;7.60;99.90;;;;;;5092565;28;20371;-71
2021/11/16 04:05:28;;;;;;;0.50;0.50;;;7.50;99.90;;;;;;5092844;28;20797;-71
2021/11/16 04:07:54;;;;;;;0.40;0.20;;;7.50;99.90;;;;;;5092268;28;20417;-71
2021/11/16 04:10:22;;;;;;;0.80;0.50;;;7.60;99.90;;;;;;5093162;28;20431;-71
2021/11/16 04:12:49;;;;;;;0.60;0.50;;;7.40;99.90;;;;;;5092752;28;20861;-71
2021/11/16 04:15:16;;;;;;;0.40;0.20;;;7.50;99.90;;;;;;5092420;28;20890;-71
2021/11/16 04:17:43;;;;;;;0.80;0.80;;;7.50;99.90;;;;;;5092600;28;20382;-70
2021/11/16 04:20:12;;;;;;;0.40;0.20;;;7.60;99.90;;;;;;5092076;28;20393;-71
2021/11/16 04:22:38;;;;;;;0.40;0.30;;;7.60;99.90;;;;;;5092675;28;20374;-70
2021/11/16 04:25:05;;;;;;;0.40;0.30;;;7.60;99.90;;;;;;5091797;28;20370;-71
2021/11/16 04:27:30;;;;;;;0.40;0.30;;;7.50;99.90;;;;;;5092596;28;20386;-70
2021/11/16 04:29:56;;;;;;;0.40;0.20;;;7.50;99.90;;;;;;5091606;28;20382;-71
2021/11/16 04:32:22;;;;;;;0.40;0.40;;;7.50;99.90;;;;;;5092402;28;20431;-70
2021/11/16 04:34:48;;;;;;;0.40;0.20;;;7.40;99.90;;;;;;5092554;28;20409;-71
2021/11/16 04:37:14;;;;;;;0.40;0.20;;;7.50;99.90;;;;;;5091584;28;20392;-71
2021/11/16 04:39:40;;;;;;;0.40;0.20;;;7.20;99.90;;;;;;5092379;28;20436;-70
2021/11/16 04:42:05;;;;;;;0.40;0.20;;;7.40;99.90;;;;;;5091455;28;20769;-71
2021/11/16 04:44:31;;;;;;;0.40;0.20;;;7.30;99.90;;;;;;5092279;28;20403;-71
2021/11/16 04:46:57;;;;;;;0.40;0.30;;;7.30;99.90;;;;;;5091484;28;20386;-71
2021/11/16 04:49:33;;;;;;;0.50;0.50;;;7.30;99.90;;;;;;5092223;28;20823;-71
2021/11/16 05:02:40;;;;;;;0.40;0.20;;;7.50;99.90;;;;;;5092178;28;20378;-71
2021/11/16 05:05:08;;;;;;;0.40;0.20;;;7.50;99.90;;;;;;5091506;28;20727;-71
2021/11/16 05:07:36;;;;;;;0.50;0.50;;;7.50;99.90;;;;;;5091914;28;20382;-71
2021/11/16 05:10:05;;;;;;;0.50;0.50;;;7.40;99.90;;;;;;5091391;28;20374;-71
2021/11/16 05:12:32;;;;;;;0.90;0.90;;;7.40;99.90;;;;;;5091641;28;20850;-70
2021/11/16 05:15:04;;;;;;;0.40;0.30;;;7.40;99.90;;;;;;5091309;28;20420;-70
2021/11/16 05:17:30;;;;;;;0.40;0.20;;;7.40;99.90;;;;;;5092096;28;20382;-70
2021/11/16 05:19:56;;;;;;;0.40;0.20;;;7.40;99.90;;;;;;5091354;28;20433;-71
2021/11/16 05:22:22;;;;;;;0.40;0.20;;;7.50;99.90;;;;;;5091843;28;20385;-71
2021/11/16 05:24:48;;;;;;;0.40;0.20;;;7.30;99.90;;;;;;5091865;28;20410;-71
2021/11/16 05:27:15;;;;;;;0.40;0.30;;;7.30;99.90;;;;;;5091059;28;20788;-70
2021/11/16 05:29:41;;;;;;;0.70;0.70;;;7.40;99.90;;;;;;5091700;28;20397;-71
2021/11/16 05:32:08;;;;;;;0.40;0.40;;;7.50;99.90;;;;;;5090719;28;20384;-71
2021/11/16 05:34:33;;;;;;;2.70;1.00;;;7.60;99.90;;;;;;5091418;28;20381;-71
2021/11/16 05:36:59;;;;;;;0.40;0.30;;;7.50;99.90;;;;;;5090602;28;20382;-71
2021/11/16 05:39:25;;;;;;;0.50;0.50;;;7.30;99.90;;;;;;5091509;28;20870;-71
2021/11/16 05:41:51;;;;;;;0.40;0.40;;;7.30;99.90;;;;;;5091501;28;20374;-71
2021/11/16 05:44:17;;;;;;;1.17;1.08;;;7.40;99.90;;;;;;5090937;28;20374;-70
2021/11/16 05:46:42;;;;;;;0.70;0.50;;;7.20;99.90;;;;;;5090902;28;20448;-70
2021/11/16 05:49:08;;;;;;;0.40;0.20;;;7.40;99.90;;;;;;5090809;28;20421;-71
2021/11/16 05:51:35;;;;;;;0.40;0.30;;;7.40;99.90;;;;;;5087224;28;20420;-71
2021/11/16 05:54:02;;;;;;;0.40;0.20;;;7.30;99.90;;;;;;5085283;28;20754;-71
2021/11/16 05:56:31;;;;;;;0.40;0.20;;;7.50;99.90;;;;;;5088377;28;20390;-71
2021/11/16 05:58:57;;;;;;;0.40;0.20;;;7.30;99.90;;;;;;5087341;28;20406;-70
2021/11/16 06:01:26;;;;;;;0.70;0.70;;;7.20;99.90;;;;;;5088010;28;20941;-70
2021/11/16 06:03:52;;;;;;;0.60;0.60;;;7.20;99.90;;;;;;5086545;28;20803;-71
2021/11/16 06:06:40;;;;;;;0.40;0.30;;;7.20;99.90;;;;;;5087839;28;20873;-70
2021/11/16 06:09:11;;;;;;;0.40;0.32;;;7.20;99.90;;;;;;5087483;28;20378;-71
2021/11/16 06:11:37;;;;;;;0.60;0.50;;;7.30;99.90;;;;;;5088553;28;20401;-71
2021/11/16 06:14:03;;;;;;;0.40;0.30;;;7.20;99.90;;;;;;5087330;28;20382;-71
2021/11/16 06:16:29;;;;;;;0.65;0.40;;;7.10;99.90;;;;;;5088755;28;20862;-71
2021/11/16 06:19:01;;;;;;;0.40;0.22;;;7.30;99.90;;;;;;5087620;28;20925;-71
2021/11/16 06:21:29;;;;;;;0.95;0.95;;;7.30;99.90;;;;;;5088973;28;20440;-71
2021/11/16 06:23:55;;;;;;;0.40;0.30;;;7.50;99.90;;;;;;5088103;28;20855;-70
2021/11/16 06:26:22;;;;;;;0.40;0.20;;;7.40;99.90;;;;;;5087246;28;20374;-71
2021/11/16 06:28:49;;;;;;;0.40;0.20;;;7.40;99.90;;;;;;5087830;28;20389;-70
2021/11/16 06:31:18;;;;;;;0.40;0.20;;;7.50;99.90;;;;;;5087395;28;20386;-71
2021/11/16 06:33:43;;;;;;;0.40;0.20;;;7.40;99.90;;;;;;5087819;28;20381;-71
2021/11/16 06:36:09;;;;;;;0.40;0.20;;;7.30;99.90;;;;;;5087397;28;20386;-71
2021/11/16 06:38:35;;;;;;;1.00;0.60;;;7.30;99.90;;;;;;5087678;28;20402;-71
2021/11/16 06:41:00;;;;;;;0.90;0.60;;;7.30;99.90;;;;;;5089435;28;20851;-71
2021/11/16 06:43:31;;;;;;;0.40;0.30;;;7.40;99.90;;;;;;5090159;28;20375;-71
2021/11/16 06:45:59;;;;;;;0.68;0.57;;;7.10;99.90;;;;;;5090744;28;20703;-71
2021/11/16 06:48:25;;;;;;;0.40;0.20;;;7.30;99.90;;;;;;5090841;28;20739;-71
2021/11/16 06:50:52;;;;;;;0.40;0.20;;;7.30;99.90;;;;;;5090468;28;20406;-71
2021/11/16 06:53:25;;;;;;;0.50;0.40;;;7.10;99.90;;;;;;5089748;28;20466;-71
2021/11/16 06:55:51;;;;;;;0.40;0.20;;;7.30;99.90;;;;;;5090684;28;20385;-71
2021/11/16 06:58:17;;;;;;;0.40;0.40;;;7.40;99.90;;;;;;5089933;28;20397;-71
2021/11/16 07:00:44;;;;;;;0.40;0.20;;;7.40;99.90;;;;;;5090632;28;20742;-70
2021/11/16 07:03:19;;;;;;;0.40;0.40;;;7.30;99.90;;;;;;5089937;28;20385;-70
2021/11/16 07:05:56;;;;;;;0.40;0.40;;;7.20;99.90;;;;;;5090667;28;20378;-70
2021/11/16 07:08:30;;;;;;;0.40;0.30;;;7.20;99.90;;;;;;5089921;28;20375;-70
2021/11/16 07:11:03;;;;;;;0.40;0.30;;;7.30;99.90;;;;;;5090492;28;20367;-70
2021/11/16 07:13:29;;;;;;;1.80;0.70;;;7.30;99.90;;;;;;5090602;28;20412;-70
2021/11/16 07:15:54;;;;;;;0.40;0.20;;;7.40;99.90;;;;;;5094040;28;20423;-71
2021/11/16 07:18:20;;;;;;;0.40;0.20;;;7.40;99.90;;;;;;5093783;28;20606;-72
2021/11/16 07:20:55;;;;;;;0.70;0.70;;;7.40;99.90;;;;;;5093989;28;20386;-70
2021/11/16 07:23:21;;;;;;;0.40;0.30;;;7.30;99.90;;;;;;5093145;28;20813;-72
2021/11/16 07:25:47;;;;;;;0.40;0.20;;;7.30;99.90;;;;;;5094193;28;20859;-70
2021/11/16 07:28:12;;;;;;;1.40;0.80;;;7.40;99.90;;;;;;5093307;28;20455;-70
2021/11/16 07:30:39;;;;;;;0.40;0.30;;;7.30;99.90;;;;;;5093592;28;20427;-71
2021/11/16 07:33:11;;;;;;;0.40;0.20;;;7.40;99.90;;;;;;5092974;28;20406;-71
2021/11/16 07:35:38;;;;;;;0.40;0.20;;;7.50;99.90;;;;;;5093766;28;20404;-71
2021/11/16 07:38:08;;;;;;;0.40;0.20;;;7.10;99.90;;;;;;5089995;28;20409;-71
2021/11/16 07:40:36;;;;;;;0.40;0.20;;;7.10;99.90;;;;;;5093448;28;20374;-71
2021/11/16 07:43:09;;;;;;;1.50;1.00;;;7.10;99.90;;;;;;5093632;28;20412;-71
2021/11/16 07:45:42;;;;;;;0.60;0.60;;;7.20;99.90;;;;;;5093506;28;20390;-71
2021/11/16 07:48:18;;;;;;;0.40;0.20;;;7.40;99.90;;;;;;5092823;28;20443;-71
2021/11/16 07:50:45;;;;;;;0.40;0.30;;;7.50;99.90;;;;;;5079829;28;20897;-71
2021/11/16 07:53:27;;;;;;;0.60;0.60;;;7.40;99.90;;;;;;5080570;28;20931;-70
2021/11/16 07:56:09;;;;;;;1.33;0.77;;;7.40;99.90;;;;;;5079531;28;20400;-70
2021/11/16 07:58:43;;;;;;;0.40;0.30;;;7.20;99.90;;;;;;5080377;28;20410;-70
2021/11/16 08:01:34;;;;;;;0.40;0.30;;;7.20;99.90;;;;;;5077697;28;20405;-70
2021/11/16 08:04:18;;;;;;;0.40;0.40;;;7.10;99.90;;;;;;5081534;28;20398;-71
2021/11/16 08:06:55;;;;;;;0.40;0.20;;;7.20;99.90;;;;;;5080541;28;20435;-71
2021/11/16 08:09:37;;;;;;;0.50;0.50;;;7.20;99.90;;;;;;5078658;28;20499;-71
2021/11/16 08:14:43;;;;;;;0.40;0.30;;;7.30;99.90;;;;;;5086422;28;20473;-71
2021/11/16 08:17:10;;;;;;;0.40;0.20;;;7.40;99.90;;;;;;5090612;28;20370;-72
2021/11/16 08:19:38;;;;;;;0.40;0.40;;;7.40;99.90;;;;;;5092482;28;20409;-71
2021/11/16 08:22:12;;;;;;;0.40;0.20;;;7.30;99.90;;;;;;5093022;28;20382;-71
2021/11/16 08:24:42;;;;;;;0.40;0.20;;;7.30;99.90;;;;;;5093090;28;20393;-71
2021/11/16 08:27:27;;;;;;;1.00;0.70;;;7.30;99.90;;;;;;5091582;28;20383;-71
2021/11/16 08:30:12;;;;;;;0.40;0.30;;;7.30;99.90;;;;;;5092977;28;20386;-71
2021/11/16 08:32:42;;;;;;;1.20;1.10;;;7.30;99.90;;;;;;5092903;28;20378;-72
2021/11/16 08:35:13;;;;;;;0.40;0.20;;;7.50;99.90;;;;;;5092133;28;20773;-72
2021/11/16 08:37:41;;;;;;;0.40;0.20;;;7.40;99.90;;;;;;5092830;28;20382;-71
2021/11/16 08:40:11;;;;;;;0.40;0.30;;;7.40;99.90;;;;;;5091920;28;20422;-72
2021/11/16 08:42:42;;;;;;;0.40;0.40;;;7.40;99.90;;;;;;5092832;28;20435;-71
2021/11/16 08:45:18;;;;;;;0.40;0.30;;;7.40;99.90;;;;;;5091854;28;20850;-71
2021/11/16 08:47:47;;;;;;;0.90;0.60;;;7.40;99.90;;;;;;5092369;28;20404;-71
2021/11/16 08:50:29;;;;;;;0.50;0.50;;;7.40;99.90;;;;;;5091561;28;20378;-71
2021/11/16 08:53:03;;;;;;;0.40;0.20;;;7.20;99.90;;;;;;5092342;28;20473;-71
2021/11/16 08:55:31;;;;;;;0.40;0.30;;;7.40;99.90;;;;;;5091778;28;20382;-71
2021/11/16 08:58:00;;;;;;;0.40;0.32;;;7.50;99.90;;;;;;5092279;28;20432;-71
2021/11/16 09:00:34;;;;;;;0.40;0.20;;;7.50;99.90;;;;;;5091404;28;20730;-71
2021/11/16 09:03:06;;;;;;;0.50;0.50;;;7.40;99.90;;;;;;5092286;28;20443;-71
2021/11/16 09:05:36;;;;;;;0.40;0.30;;;7.40;99.90;;;;;;5092034;28;20484;-71
2021/11/16 09:08:04;;;;;;;0.40;0.20;;;7.40;99.90;;;;;;5092122;28;20382;-71
2021/11/16 09:10:38;;;;;;;0.40;0.20;;;7.50;99.90;;;;;;5091459;28;20408;-71
2021/11/16 09:13:06;;;;;;;0.40;0.30;;;7.50;99.90;;;;;;5091853;28;20401;-71
2021/11/16 09:15:41;;;;;;;0.40;0.20;;;7.60;99.90;;;;;;5090769;28;20935;-71
2021/11/16 09:18:36;;;;;;;0.40;0.20;;;7.60;99.90;;;;;;5091856;28;20902;-71
2021/11/16 09:21:13;;;;;;;1.30;0.70;;;7.70;99.90;;;;;;5091679;28;20869;-71
2021/11/16 09:23:44;;;;;;;0.40;0.30;;;7.70;99.90;;;;;;5090639;28;20743;-71
2021/11/16 09:26:33;;;;;;;0.40;0.30;;;7.70;99.90;;;;;;5089992;28;20394;-71
2021/11/16 09:29:06;;;;;;;0.40;0.20;;;7.70;99.90;;;;;;5091623;28;20443;-71
2021/11/16 09:31:35;;;;;;;0.50;0.50;;;7.50;99.90;;;;;;5090902;28;20735;-71
2021/11/16 09:34:27;;;;;;;0.40;0.28;;;7.60;99.90;;;;;;5091282;28;20412;-71
2021/11/16 09:37:10;;;;;;;0.40;0.20;;;7.40;99.90;;;;;;5080422;28;20401;-71
2021/11/16 09:40:11;;;;;;;0.40;0.20;;;7.60;99.90;;;;;;5091578;28;20413;-71
2021/11/16 09:42:37;;;;;;;0.60;0.60;;;7.50;99.90;;;;;;5073761;28;20406;-72
2021/11/16 09:45:10;;;;;;;0.70;0.70;;;7.50;99.90;;;;;;5091459;28;20699;-69
2021/11/16 09:47:41;;;;;;;0.40;0.30;;;7.60;99.90;;;;;;5091387;28;20403;-71
2021/11/16 09:50:13;;;;;;;0.40;0.20;;;7.50;99.90;;;;;;5091316;28;20468;-72
2021/11/16 09:52:46;;;;;;;0.50;0.50;;;7.50;99.90;;;;;;5091190;28;20939;-69
2021/11/16 09:55:24;;;;;;;0.40;0.40;;;7.70;99.90;;;;;;5090651;28;20389;-69
2021/11/16 09:58:03;;;;;;;0.40;0.20;;;7.80;99.90;;;;;;5091296;28;20383;-69
2021/11/16 10:00:37;;;;;;;0.40;0.20;;;7.70;99.90;;;;;;5090391;28;20410;-70
2021/11/16 10:03:11;;;;;;;0.60;0.60;;;7.70;99.90;;;;;;5091391;28;20396;-70
2021/11/16 10:05:43;;;;;;;0.40;0.30;;;7.90;99.90;;;;;;5091131;28;20381;-70
2021/11/16 10:08:10;;;;;;;0.40;0.20;;;7.90;99.90;;;;;;5091183;28;20378;-72
2021/11/16 10:10:39;;;;;;;1.00;0.60;;;7.90;99.90;;;;;;5090874;28;20374;-70
2021/11/16 10:13:08;;;;;;;0.40;0.20;;;7.90;99.90;;;;;;5090951;28;20892;-72
2021/11/16 10:15:39;;;;;;;0.40;0.30;;;7.80;99.90;;;;;;5089745;28;20939;-70
2021/11/16 10:18:05;;;;;;;0.40;0.20;;;7.90;99.90;;;;;;5090915;28;20723;-72
2021/11/16 10:20:34;;;;;;;0.40;0.30;;;7.80;99.90;;;;;;5089947;28;20835;-71
2021/11/16 10:23:02;;;;;;;0.40;0.30;;;7.70;99.90;;;;;;5090554;28;20933;-71
2021/11/16 10:25:33;;;;;;;0.40;0.30;;;7.70;99.90;;;;;;5090285;28;20615;-71
2021/11/16 10:28:16;;;;;;;0.40;0.20;;;8.00;99.90;;;;;;5091071;28;20419;-71
2021/11/16 10:30:44;;;;;;;0.40;0.20;;;7.60;99.90;;;;;;5090788;28;20377;-71
2021/11/16 10:33:32;;;;;;;0.40;0.30;;;7.80;99.90;;;;;;5090909;28;20395;-71
2021/11/16 10:36:03;;;;;;;0.40;0.40;;;7.80;99.90;;;;;;5090858;28;20382;-71
2021/11/16 10:38:50;;;;;;;0.40;0.20;;;7.80;99.90;;;;;;5090244;28;20410;-71
2021/11/16 10:41:21;;;;;;;0.40;0.30;;;7.90;99.90;;;;;;5090099;28;20413;-71
2021/11/16 10:44:12;;;;;;;0.40;0.30;;;7.80;99.90;;;;;;5091069;28;20390;-71
2021/11/16 10:46:42;;;;;;;0.40;0.28;;;8.00;99.90;;;;;;5090297;28;20392;-71
2021/11/16 10:49:12;;;;;;;0.40;0.40;;;8.00;99.90;;;;;;5091912;28;20400;-71
2021/11/16 10:51:42;;;;;;;2.10;1.10;;;7.90;99.90;;;;;;5094587;28;20405;-71
2021/11/16 10:54:09;;;;;;;0.40;0.20;;;8.00;99.90;;;;;;5094692;28;20377;-71
2021/11/16 10:56:36;;;;;;;0.40;0.30;;;7.80;99.90;;;;;;5092608;28;20775;-71
2021/11/16 10:59:05;;;;;;;0.40;0.30;;;7.80;99.90;;;;;;5094523;28;20451;-71
2021/11/16 11:01:31;;;;;;;0.40;0.20;;;7.80;99.90;;;;;;5093734;28;20411;-71
2021/11/16 11:03:57;;;;;;;0.90;0.90;;;7.60;99.90;;;;;;5094241;28;20377;-71
2021/11/16 11:06:33;;;;;;;0.40;0.20;;;7.70;99.90;;;;;;5093454;28;20867;-72
2021/11/16 11:09:04;;;;;;;0.50;0.50;;;7.70;99.90;;;;;;5094469;28;20526;-71
2021/11/16 11:11:38;;;;;;;0.50;0.50;;;7.80;99.90;;;;;;5093703;28;20409;-72
2021/11/16 11:14:08;;;;;;;0.43;0.27;;;8.00;99.90;;;;;;5094394;28;20386;-72
2021/11/16 11:17:01;;;;;;;0.40;0.20;;;8.10;99.90;;;;;;5093216;28;20404;-72
2021/11/16 11:19:35;;;;;;;0.40;0.30;;;8.10;99.90;;;;;;5093565;28;20420;-71
2021/11/16 11:27:55;;;;;;;0.40;0.20;;;8.10;99.90;;;;;;5093489;28;20427;-71
2021/11/16 11:30:22;;;;;;;0.40;0.30;;;7.90;99.90;;;;;;5093547;28;20390;-71
2021/11/16 11:32:51;;;;;;;3.80;0.70;;;7.90;99.90;;;;;;5093953;28;20378;-71
2021/11/16 11:35:23;;;;;;;0.40;0.20;;;8.00;99.90;;;;;;5093295;28;20383;-71
2021/11/16 11:38:09;;;;;;;0.70;0.55;;;7.90;99.90;;;;;;5093658;28;20374;-71
2021/11/16 11:40:38;;;;;;;2.65;1.23;;;7.90;99.90;;;;;;5093162;28;20439;-72
2021/11/16 11:43:05;;;;;;;0.40;0.30;;;7.90;99.90;;;;;;5093732;28;20378;-71
2021/11/16 11:45:38;;;;;;;1.33;1.00;;;7.90;99.90;;;;;;5092973;28;20425;-71
2021/11/16 11:48:04;;;;;;;0.80;0.80;;;7.70;99.90;;;;;;5093536;28;20386;-71
2021/11/16 11:50:46;;;;;;;0.60;0.60;;;7.70;99.90;;;;;;5092947;28;20426;-72
2021/11/16 11:53:20;;;;;;;0.40;0.30;;;7.80;99.90;;;;;;5093448;28;20478;-71
2021/11/16 11:55:57;;;;;;;0.40;0.20;;;7.90;99.90;;;;;;5093498;28;20830;-72
2021/11/16 11:58:24;;;;;;;0.40;0.20;;;7.80;99.90;;;;;;5092659;28;20874;-72
2021/11/16 12:00:54;;;;;;;0.40;0.20;;;7.80;99.90;;;;;;5091676;28;20915;-70
2021/11/16 12:03:21;;;;;;;0.40;0.30;;;7.70;99.90;;;;;;5092483;28;20382;-71
2021/11/16 12:05:48;;;;;;;5.20;0.90;;;7.70;99.90;;;;;;5092912;28;20377;-71
2021/11/16 12:08:15;;;;;;;0.63;0.47;;;7.80;99.90;;;;;;5093138;28;20390;-71
2021/11/16 12:10:43;;;;;;;0.40;0.30;;;7.70;99.90;;;;;;5092483;28;20719;-70
2021/11/16 12:13:10;;;;;;;0.40;0.40;;;7.80;99.90;;;;;;5092898;28;20374;-70
2021/11/16 12:15:40;;;;;;;0.40;0.20;;;7.80;99.90;;;;;;5092162;28;20431;-70
2021/11/16 12:18:06;;;;;;;0.80;0.80;;;7.70;99.90;;;;;;5092582;28;20386;-70
2021/11/16 12:20:51;;;;;;;0.40;0.20;;;7.90;99.90;;;;;;5092201;28;20378;-71
2021/11/16 12:23:20;;;;;;;0.40;0.25;;;8.00;99.90;;;;;;5092891;28;20370;-71
2021/11/16 12:25:47;;;;;;;0.40;0.20;;;7.90;99.90;;;;;;5092829;28;20465;-71
2021/11/16 12:28:31;;;;;;;1.00;0.90;;;8.10;99.90;;;;;;5092645;28;20382;-71
2021/11/16 12:30:59;;;;;;;0.40;0.40;;;8.20;99.90;;;;;;5092480;28;20449;-70
2021/11/16 12:33:51;;;;;;;0.40;0.20;;;8.00;99.90;;;;;;5092141;28;20416;-71
2021/11/16 12:36:45;;;;;;;0.47;0.47;;;7.80;99.90;;;;;;5089315;28;20394;-71
2021/11/16 12:39:19;;;;;;;0.40;0.30;;;7.70;99.90;;;;;;5082263;28;20409;-71
2021/11/16 12:41:48;;;;;;;0.40;0.20;;;7.80;99.90;;;;;;5092479;28;20393;-71
2021/11/16 12:44:17;;;;;;;0.40;0.20;;;7.60;99.90;;;;;;5092518;28;20439;-70
2021/11/16 12:46:45;;;;;;;0.43;0.28;;;7.70;99.90;;;;;;5091769;28;20762;-71
2021/11/16 12:49:37;;;;;;;0.60;0.50;;;7.80;99.90;;;;;;5092379;28;20394;-70
2021/11/16 12:52:07;;;;;;;0.70;0.70;;;8.10;99.90;;;;;;5092098;28;20467;-70
2021/11/16 12:54:34;;;;;;;0.40;0.20;;;7.90;99.90;;;;;;5090418;28;20865;-70
2021/11/16 12:57:00;;;;;;;0.40;0.20;;;7.90;99.90;;;;;;5092262;28;20374;-70
2021/11/16 12:59:32;;;;;;;0.60;0.60;;;7.90;99.90;;;;;;5091181;28;20451;-71
2021/11/16 13:02:07;;;;;;;0.40;0.30;;;8.00;99.90;;;;;;5092140;28;20854;-71
2021/11/16 13:04:58;;;;;;;0.40;0.20;;;7.70;99.90;;;;;;5091540;28;20386;-71
2021/11/16 13:07:28;;;;;;;0.40;0.20;;;7.80;99.90;;;;;;5091411;28;20392;-71
2021/11/16 13:09:56;;;;;;;0.40;0.30;;;7.70;99.90;;;;;;5090826;28;20430;-71
2021/11/16 13:12:43;;;;;;;0.40;0.20;;;7.80;99.90;;;;;;5090895;28;20378;-71
2021/11/16 13:15:25;;;;;;;0.40;0.27;;;7.80;99.90;;;;;;5092046;28;20405;-71
2021/11/16 13:17:59;;;;;;;0.90;0.80;;;7.90;99.90;;;;;;5091831;28;20469;-71
2021/11/16 13:20:31;;;;;;;0.40;0.20;;;7.80;99.90;;;;;;5091210;28;20754;-72
2021/11/16 13:23:04;;;;;;;0.90;0.90;;;7.90;99.90;;;;;;5091848;28;20381;-72
2021/11/16 13:25:44;;;;;;;0.40;0.20;;;7.90;99.90;;;;;;5089932;28;20460;-72
2021/11/16 13:31:21;;;;;;;0.40;0.35;;;7.90;99.90;;;;;;5091623;28;20382;-72
2021/11/16 13:33:48;;;;;;;0.40;0.30;;;7.60;99.90;;;;;;5076406;28;20382;-72
2021/11/16 13:36:20;;;;;;;0.40;0.20;;;7.70;99.90;;;;;;5091609;28;20746;-71